Time;durP1;ratioP1;P1;durP2;ratioP2;P2;SDS_P1;SDS_P2;PMS_P1;PMS_P2;Temp;Humidity;BMP_temperature;BMP_pressure;BME280_temperature;BME280_humidity;BME280_pressure;Samples;Min_cycle;Max_cycle;Signal;HPM_P1;HPM_P2
2021/03/28 00:01:02;;;;;;;12.15;9.48;;;;;;;9.10;77.21;101494.03;4999740;28;20027;-84
2021/03/28 00:03:41;;;;;;;17.65;11.75;;;;;;;9.53;76.02;101538.59;5000360;28;20027;-84
2021/03/28 00:06:18;;;;;;;14.15;10.63;;;;;;;8.83;76.08;101451.47;5232936;23;20063;-83
2021/03/28 00:09:08;;;;;;;11.02;9.88;;;;;;;9.00;76.60;101463.78;5061657;28;20051;-83
2021/03/28 00:11:49;;;;;;;12.43;9.10;;;;;;;8.92;76.52;101462.63;5079279;28;20032;-83
2021/03/28 00:14:15;;;;;;;12.65;9.02;;;;;;;8.84;76.21;101472.56;5061977;28;20017;-84
2021/03/28 00:16:50;;;;;;;11.55;9.05;;;;;;;9.20;76.58;101518.72;5061818;28;20085;-84
2021/03/28 00:19:32;;;;;;;10.57;8.93;;;;;;;9.23;76.59;101525.63;5061913;28;20131;-83
2021/03/28 00:22:04;;;;;;;11.10;9.00;;;;;;;9.16;76.61;101526.91;5156043;22;20062;-83
2021/03/28 00:24:37;;;;;;;10.43;7.97;;;;;;;8.80;76.82;101482.66;5019080;28;20013;-82
2021/03/28 00:27:15;;;;;;;8.82;7.78;;;;;;;8.77;77.27;101496.34;5018965;28;20069;-83
2021/03/28 00:30:06;;;;;;;10.43;7.72;;;;;;;9.25;76.51;101551.91;5018713;28;20050;-84
2021/03/28 00:33:14;;;;;;;9.07;7.60;;;;;;;8.89;77.16;101525.16;5018643;28;20038;-84
2021/03/28 00:35:46;;;;;;;11.20;8.57;;;;;;;9.24;76.68;101557.81;5019464;28;20021;-83
2021/03/28 00:38:38;;;;;;;11.90;8.63;;;;;;;9.19;77.00;101545.69;5019019;28;20069;-84
2021/03/28 00:41:13;;;;;;;11.38;8.82;;;;;;;9.15;77.25;101544.69;5008121;28;20141;-84
2021/03/28 00:43:48;;;;;;;11.30;9.00;;;;;;;9.21;77.63;101542.59;5018833;28;20025;-84
2021/03/28 00:46:34;;;;;;;9.32;8.38;;;;;;;9.18;77.44;101548.78;5018678;28;20062;-84
2021/03/28 00:49:01;;;;;;;11.57;7.97;;;;;;;8.56;77.66;101471.91;5105441;23;20037;-84
2021/03/28 00:51:32;;;;;;;9.27;8.23;;;;;;;8.72;77.89;101469.53;5058116;28;20013;-83
2021/03/28 00:54:11;;;;;;;12.02;9.18;;;;;;;8.88;78.19;101520.72;5057796;28;20020;-83
2021/03/28 00:56:41;;;;;;;10.32;9.15;;;;;;;8.92;77.20;101527.28;5058174;28;20013;-83
2021/03/28 00:59:21;;;;;;;9.27;8.38;;;;;;;8.58;77.58;101469.66;5057990;28;20017;-83
2021/03/28 01:01:46;;;;;;;10.85;8.43;;;;;;;9.05;77.40;101544.97;5057917;28;20067;-83
2021/03/28 01:07:29;;;;;;;12.02;8.73;;;;;;;8.59;77.68;101481.56;5361208;23;20049;-84
2021/03/28 01:10:24;;;;;;;10.88;7.85;;;;;;;9.18;76.52;101537.69;5021672;28;20061;-84
2021/03/28 01:16:01;;;;;;;9.13;7.10;;;;;;;9.06;76.77;101529.16;5082486;22;20048;-84
2021/03/28 01:24:15;;;;;;;9.43;5.80;;;;;;;8.86;76.60;101534.09;5018901;28;20050;-84
2021/03/28 01:27:22;;;;;;;8.13;5.32;;;;;;;8.45;76.49;101469.72;5011780;28;20026;-83
2021/03/28 01:29:59;;;;;;;7.53;5.57;;;;;;;8.71;76.77;101511.50;5021584;28;20053;-84
2021/03/28 01:32:46;;;;;;;7.07;6.38;;;;;;;8.83;76.97;101529.19;5021576;28;20033;-84
2021/03/28 01:35:14;;;;;;;7.00;6.05;;;;;;;8.95;76.35;101533.31;5021584;28;20041;-83
2021/03/28 01:38:10;;;;;;;8.82;5.63;;;;;;;8.93;76.09;101526.13;5021591;28;20065;-84
2021/03/28 01:40:49;;;;;;;8.20;6.78;;;;;;;8.80;76.78;101538.16;5022301;28;20042;-83
2021/03/28 01:46:18;;;;;;;9.13;7.43;;;;;;;8.18;77.60;101470.66;5488771;22;20040;-84
2021/03/28 01:52:04;;;;;;;13.90;10.10;;;;;;;8.69;78.50;101539.56;5595846;22;20057;-84
2021/03/28 01:55:17;;;;;;;14.80;10.30;;;;;;;8.70;78.68;101541.19;5063167;28;20017;-83
2021/03/28 01:58:13;;;;;;;13.63;10.18;;;;;;;8.17;78.72;101461.53;5058011;28;20025;-84
2021/03/28 02:01:06;;;;;;;11.25;10.13;;;;;;;8.77;78.28;101541.56;5081375;28;20036;-83
2021/03/28 02:04:04;;;;;;;12.90;10.60;;;;;;;8.38;77.73;101487.63;5081527;28;20092;-84
2021/03/28 02:06:46;;;;;;;10.45;8.32;;;;;;;8.54;76.63;101498.34;5774916;22;20020;-77
2021/03/28 02:09:30;;;;;;;8.55;7.70;;;;;;;8.55;77.03;101530.50;5024356;28;20026;-83
2021/03/28 02:12:02;;;;;;;;;;;;;;;8.53;77.13;101543.88;5230133;22;20093;-84
2021/03/28 02:14:47;;;;;;;8.18;6.78;;;;;;;8.50;77.74;101544.50;5060715;28;19901;-84
2021/03/28 02:17:22;;;;;;;9.75;6.30;;;;;;;8.47;77.13;101539.56;5060806;28;20085;-83
2021/03/28 02:20:06;;;;;;;7.45;6.72;;;;;;;8.40;77.05;101538.06;5060641;28;20085;-85
2021/03/28 02:22:43;;;;;;;6.32;5.72;;;;;;;7.82;77.30;101454.88;5060639;28;20025;-83
2021/03/28 02:25:32;;;;;;;8.77;6.80;;;;;;;8.39;77.00;101539.19;5060718;28;20017;-85
2021/03/28 02:28:06;;;;;;;10.30;6.45;;;;;;;8.33;77.01;101534.88;5032538;28;20025;-84
2021/03/28 02:30:49;;;;;;;8.63;6.30;;;;;;;7.98;77.63;101483.06;5060708;28;20014;-84
2021/03/28 02:33:33;;;;;;;8.85;6.30;;;;;;;7.81;77.30;101467.94;5060730;28;20120;-84
2021/03/28 02:36:27;;;;;;;9.25;8.18;;;;;;;8.37;77.34;101535.94;5060616;28;20032;-84
2021/03/28 02:39:17;;;;;;;20.75;16.42;;;;;;;8.35;77.89;101538.16;5060608;28;20021;-84
2021/03/28 02:41:50;;;;;;;19.50;17.38;;;;;;;8.37;77.63;101541.47;5060489;28;20041;-84
2021/03/28 02:46:57;;;;;;;14.88;11.75;;;;;;;8.39;77.14;101528.09;5656201;22;20041;-83
2021/03/28 02:49:45;;;;;;;10.02;8.98;;;;;;;8.12;77.25;101511.56;5063390;28;20032;-83
2021/03/28 02:52:25;;;;;;;10.98;8.43;;;;;;;8.33;77.89;101534.88;5063566;28;20009;-83
2021/03/28 02:58:09;;;;;;;9.43;8.52;;;;;;;8.26;77.59;101534.50;5224856;22;20063;-82
2021/03/28 03:00:56;;;;;;;10.00;8.98;;;;;;;8.21;77.88;101537.41;5063112;28;20017;-84
2021/03/28 03:06:35;;;;;;;18.23;16.42;;;;;;;7.89;78.12;101485.78;5769001;22;20029;-83
2021/03/28 03:12:29;;;;;;;38.50;34.70;;;;;;;8.12;78.01;101533.72;5427512;22;20041;-82
2021/03/28 03:15:11;;;;;;;33.30;29.75;;;;;;;7.74;78.26;101470.31;5035924;28;20021;-83
2021/03/28 03:17:56;;;;;;;34.95;31.35;;;;;;;8.13;77.22;101532.59;5043005;28;20021;-83
2021/03/28 03:23:32;;;;;;;37.03;32.95;;;;;;;8.07;77.68;101536.63;5129752;22;20049;-84
2021/03/28 03:26:08;;;;;;;55.97;46.22;;;;;;;8.10;77.74;101536.81;5039526;28;20020;-83
2021/03/28 03:28:58;;;;;;;82.55;66.28;;;;;;;8.06;77.75;101540.53;5039392;28;20052;-83
2021/03/28 03:32:15;;;;;;;73.07;57.78;;;;;;;7.79;77.06;101500.69;5023290;28;20045;-83
2021/03/28 03:35:00;;;;;;;56.03;45.55;;;;;;;8.10;77.40;101533.25;4982462;28;20066;-85
2021/03/28 03:38:10;;;;;;;55.28;42.45;;;;;;;7.81;76.87;101494.81;5022881;28;20045;-83
2021/03/28 03:46:01;;;;;;;37.40;28.67;;;;;;;7.60;76.50;101450.13;5122685;22;20269;-84
2021/03/28 03:51:38;;;;;;;27.60;20.30;;;;;;;7.83;76.87;101490.63;5293180;23;20092;-84
2021/03/28 03:54:40;;;;;;;17.70;15.45;;;;;;;8.20;76.46;101541.28;5022427;28;20033;-82
2021/03/28 03:57:25;;;;;;;24.50;19.70;;;;;;;7.59;77.10;101473.44;5018631;28;20056;-83
2021/03/28 04:00:17;;;;;;;20.60;11.85;;;;;;;7.94;77.04;101512.56;5022343;28;20025;-83
2021/03/28 04:02:57;;;;;;;8.90;6.70;;;;;;;8.15;76.74;101541.44;5039100;28;20053;-83
2021/03/28 04:08:04;;;;;;;5.97;5.15;;;;;;;8.08;77.09;101546.56;5016288;28;20042;-83
2021/03/28 04:10:33;;;;;;;6.35;5.40;;;;;;;7.97;77.43;101559.03;5002410;28;20097;-83
2021/03/28 04:13:17;;;;;;;5.95;5.07;;;;;;;8.02;77.47;101548.66;5075996;23;20095;-80
2021/03/28 04:16:01;;;;;;;6.35;4.28;;;;;;;7.97;77.15;101548.75;5042262;28;20018;-83
2021/03/28 04:24:26;;;;;;;8.60;5.22;;;;;;;7.85;78.38;101557.63;5095338;22;20057;-83
2021/03/28 04:27:20;;;;;;;6.80;5.78;;;;;;;7.72;77.74;101536.28;5041752;28;20041;-83
2021/03/28 04:29:51;;;;;;;6.47;5.72;;;;;;;7.47;77.61;101517.47;5041911;28;20073;-83
2021/03/28 04:33:21;;;;;;;8.23;5.75;;;;;;;7.43;78.48;101513.66;5058900;28;20033;-83
2021/03/28 04:36:22;;;;;;;6.88;5.15;;;;;;;7.83;78.60;101570.16;4987341;28;20113;-84
2021/03/28 04:39:07;;;;;;;5.85;5.35;;;;;;;7.36;78.69;101478.09;5000430;28;20050;-82
2021/03/28 04:45:05;;;;;;;8.38;5.60;;;;;;;7.61;78.84;101513.53;5209067;22;20030;-82
2021/03/28 04:47:37;;;;;;;10.18;6.18;;;;;;;8.01;79.32;101571.13;5142280;23;20128;-80
2021/03/28 04:50:37;;;;;;;8.10;6.75;;;;;;;7.50;79.26;101503.00;5038594;28;20014;-83
2021/03/28 04:56:38;;;;;;;7.30;6.60;;;;;;;8.18;78.17;101587.91;5270734;23;20054;-83
2021/03/28 04:59:09;;;;;;;7.00;5.45;;;;;;;8.10;78.83;101586.72;5019295;28;20089;-84
2021/03/28 05:01:54;;;;;;;7.00;5.75;;;;;;;8.08;79.05;101588.16;5074421;23;20100;-78
2021/03/28 05:04:57;;;;;;;8.23;5.72;;;;;;;8.10;79.03;101585.91;5058739;28;20022;-85
2021/03/28 05:07:54;;;;;;;6.75;6.05;;;;;;;8.37;78.43;101598.91;5207098;22;20061;-76
2021/03/28 05:10:53;;;;;;;5.93;5.32;;;;;;;8.69;77.02;101605.34;5245415;23;21982;-80
2021/03/28 05:13:45;;;;;;;9.38;6.40;;;;;;;8.96;75.84;101607.16;5022055;28;20025;-83
2021/03/28 05:16:32;;;;;;;6.10;5.45;;;;;;;9.33;74.70;101612.25;5023274;28;20109;-83
2021/03/28 05:19:01;;;;;;;8.02;5.78;;;;;;;9.75;73.27;101612.75;5025542;28;20038;-83
2021/03/28 05:21:42;;;;;;;6.55;5.85;;;;;;;10.14;71.22;101606.28;5025470;28;20022;-84
2021/03/28 05:24:29;;;;;;;6.68;5.43;;;;;;;10.02;69.82;101527.44;5025662;28;20029;-84
2021/03/28 05:27:20;;;;;;;6.20;5.53;;;;;;;10.91;68.21;101612.97;5023199;28;20021;-84
2021/03/28 05:30:11;;;;;;;9.10;8.27;;;;;;;11.37;66.03;101610.56;5024850;28;20013;-83
2021/03/28 05:32:39;;;;;;;9.50;8.60;;;;;;;11.74;64.23;101612.53;5025141;28;20064;-83
2021/03/28 05:35:08;;;;;;;20.25;16.90;;;;;;;12.21;64.15;101620.00;5024713;28;20034;-85
2021/03/28 05:38:07;;;;;;;23.95;20.20;;;;;;;12.68;62.16;101619.78;5025086;28;20018;-83
2021/03/28 05:40:55;;;;;;;50.88;36.85;;;;;;;13.27;60.08;101613.94;5024774;28;20013;-83
2021/03/28 05:43:58;;;;;;;35.20;27.23;;;;;;;13.81;58.87;101616.56;5025007;28;20018;-84
2021/03/28 05:46:50;;;;;;;32.97;28.17;;;;;;;14.13;57.09;101589.59;5024966;28;20045;-84
2021/03/28 05:49:34;;;;;;;38.92;30.95;;;;;;;14.65;55.27;101581.16;5024853;28;20022;-83
2021/03/28 05:52:18;;;;;;;37.28;33.22;;;;;;;15.53;53.83;101628.78;5042060;28;20029;-82
2021/03/28 05:57:35;;;;;;;17.25;14.45;;;;;;;16.52;51.56;101623.91;5123439;23;20053;-81
2021/03/28 06:00:18;;;;;;;11.68;10.45;;;;;;;16.83;50.04;101588.44;5101155;22;20065;-79
2021/03/28 06:13:30;;;;;;;10.35;8.30;;;;;;;18.49;46.42;101628.22;5322929;22;20101;-81
2021/03/28 06:19:09;;;;;;;10.05;8.70;;;;;;;18.94;45.10;101637.66;5199347;22;20129;-81
2021/03/28 06:22:06;;;;;;;13.05;9.38;;;;;;;18.99;43.89;101631.66;4979896;28;20023;-85
2021/03/28 06:25:13;;;;;;;12.13;9.27;;;;;;;19.42;44.10;101637.75;4979031;28;20026;-85
2021/03/28 06:28:00;;;;;;;11.35;8.50;;;;;;;19.40;44.12;101634.53;4978694;28;20473;-86
2021/03/28 06:31:05;;;;;;;7.93;7.18;;;;;;;19.22;43.68;101646.41;4978865;28;20121;-86
2021/03/28 06:33:55;;;;;;;8.65;7.10;;;;;;;18.90;45.75;101648.06;4996467;28;20541;-83
2021/03/28 06:37:10;;;;;;;7.50;5.35;;;;;;;18.87;45.77;101640.41;5003603;28;20022;-82
2021/03/28 06:39:38;;;;;;;5.97;5.25;;;;;;;19.18;44.72;101642.78;5003314;28;20022;-82
2021/03/28 06:42:41;;;;;;;7.28;5.93;;;;;;;18.81;46.20;101649.19;4993820;28;20057;-83
2021/03/28 06:45:29;;;;;;;7.03;6.32;;;;;;;18.93;45.76;101644.50;4985517;28;20044;-83
2021/03/28 06:48:29;;;;;;;7.05;6.35;;;;;;;19.07;46.24;101647.50;4979629;28;20060;-84
2021/03/28 06:51:28;;;;;;;6.72;5.95;;;;;;;19.41;45.70;101650.25;4979271;28;20069;-82
2021/03/28 06:54:15;;;;;;;5.97;5.47;;;;;;;19.48;45.06;101650.31;4978768;28;20093;-79
2021/03/28 06:57:18;;;;;;;6.20;5.60;;;;;;;19.58;44.51;101639.13;4978239;28;20034;-77
2021/03/28 07:00:12;;;;;;;9.13;6.78;;;;;;;19.08;46.65;101649.91;4978382;28;20032;-77
2021/03/28 07:03:03;;;;;;;7.45;6.75;;;;;;;19.89;44.29;101660.41;4978378;28;20469;-77
2021/03/28 07:05:36;;;;;;;9.20;6.57;;;;;;;19.97;44.39;101657.63;4978538;28;20026;-77
2021/03/28 07:08:46;;;;;;;8.90;7.10;;;;;;;20.63;43.09;101655.66;4978201;28;20030;-77
2021/03/28 07:11:29;;;;;;;10.95;6.78;;;;;;;20.98;42.31;101654.19;4953004;28;20038;-78
2021/03/28 07:14:13;;;;;;;8.70;7.22;;;;;;;21.22;41.07;101656.28;4978800;28;20039;-75
2021/03/28 07:17:13;;;;;;;8.32;7.25;;;;;;;20.90;41.65;101657.00;4978268;28;20037;-77
2021/03/28 07:19:45;;;;;;;10.07;7.90;;;;;;;21.15;40.90;101647.78;4995440;28;20046;-73
2021/03/28 07:22:29;;;;;;;10.93;7.95;;;;;;;20.38;42.86;101664.78;4977791;28;20027;-76
2021/03/28 07:25:23;;;;;;;42.83;12.00;;;;;;;20.70;43.35;101669.84;4977837;28;20037;-74
2021/03/28 07:28:07;;;;;;;9.90;8.93;;;;;;;20.50;42.55;101672.16;4978055;28;20377;-75
2021/03/28 07:30:33;;;;;;;10.88;8.85;;;;;;;20.35;43.53;101676.91;4978233;28;20645;-78
2021/03/28 07:33:26;;;;;;;13.10;10.07;;;;;;;19.73;45.28;101673.97;4978368;28;20063;-75
2021/03/28 07:36:13;;;;;;;8.10;7.28;;;;;;;18.82;47.45;101675.38;4978153;28;20058;-77
2021/03/28 07:38:56;;;;;;;9.00;8.13;;;;;;;18.42;47.17;101678.81;4977367;28;20034;-76
2021/03/28 07:41:43;;;;;;;9.80;8.30;;;;;;;18.06;48.64;101684.75;4978130;28;20034;-77
2021/03/28 07:44:31;;;;;;;9.25;8.25;;;;;;;19.56;44.69;101685.91;4979288;28;20372;-77
2021/03/28 07:47:29;;;;;;;15.32;9.38;;;;;;;19.78;44.76;101692.59;4978467;28;20027;-76
2021/03/28 07:50:26;;;;;;;8.63;7.68;;;;;;;19.29;44.48;101700.13;4977898;28;20022;-76
2021/03/28 07:53:32;;;;;;;8.95;6.32;;;;;;;19.26;44.03;101706.53;4977627;28;20501;-77
2021/03/28 07:56:16;;;;;;;11.20;8.38;;;;;;;19.46;44.48;101703.53;4935304;28;20035;-76
2021/03/28 07:59:03;;;;;;;9.60;8.38;;;;;;;20.38;42.18;101707.19;4977397;28;20034;-76
2021/03/28 08:02:10;;;;;;;10.45;8.00;;;;;;;19.81;42.97;101703.91;4977178;28;20023;-76
2021/03/28 08:05:00;;;;;;;9.30;7.47;;;;;;;20.92;40.69;101705.50;4964123;28;20077;-76
2021/03/28 08:07:41;;;;;;;11.90;8.50;;;;;;;20.96;39.76;101694.19;4977828;28;20479;-76
2021/03/28 08:10:34;;;;;;;11.80;9.95;;;;;;;21.09;40.23;101708.78;4977256;28;20030;-75
2021/03/28 08:13:12;;;;;;;8.30;7.40;;;;;;;20.97;39.46;101711.97;4977087;28;20023;-75
2021/03/28 08:15:53;;;;;;;7.88;6.97;;;;;;;21.20;39.10;101715.31;4977021;28;20038;-81
2021/03/28 08:18:55;;;;;;;8.75;7.05;;;;;;;20.98;39.61;101719.25;4976585;28;20497;-77
2021/03/28 08:21:42;;;;;;;9.05;6.72;;;;;;;21.14;39.51;101716.91;4994796;28;20026;-76
2021/03/28 08:24:40;;;;;;;10.52;7.07;;;;;;;21.23;38.14;101723.00;4976758;28;20038;-75
2021/03/28 08:27:09;;;;;;;8.85;6.70;;;;;;;21.51;37.32;101710.97;4943331;28;20455;-79
2021/03/28 08:29:57;;;;;;;7.20;6.05;;;;;;;21.13;37.72;101720.94;4976976;28;20038;-76
2021/03/28 08:32:41;;;;;;;6.22;5.43;;;;;;;21.00;36.36;101725.34;4977077;28;20121;-75
2021/03/28 08:35:49;;;;;;;7.15;5.90;;;;;;;21.26;37.46;101724.25;4976733;28;20026;-77
2021/03/28 08:38:42;;;;;;;6.72;5.72;;;;;;;22.00;35.85;101725.59;4977331;28;20029;-77
2021/03/28 08:41:48;;;;;;;6.20;5.72;;;;;;;22.69;35.24;101722.31;4994125;28;20030;-76
2021/03/28 08:44:51;;;;;;;6.85;6.10;;;;;;;22.51;35.45;101713.03;4976595;28;20081;-75
2021/03/28 08:47:27;;;;;;;7.55;6.80;;;;;;;22.34;35.93;101723.19;4976971;28;20026;-76
2021/03/28 08:50:15;;;;;;;9.88;7.07;;;;;;;23.20;33.85;101718.91;4995978;28;20532;-83
2021/03/28 08:52:50;;;;;;;6.68;6.05;;;;;;;23.25;33.43;101700.63;4980440;28;20026;-77
2021/03/28 08:55:53;;;;;;;7.28;6.57;;;;;;;22.45;35.20;101721.97;4980417;28;20077;-83
2021/03/28 08:58:40;;;;;;;7.20;6.57;;;;;;;22.81;33.81;101718.25;4998004;28;20469;-86
2021/03/28 09:01:15;;;;;;;10.80;9.35;;;;;;;22.53;34.86;101721.94;4980587;28;20045;-87
2021/03/28 09:04:02;;;;;;;11.00;7.05;;;;;;;22.57;34.88;101715.03;4980356;28;20034;-84
2021/03/28 09:07:12;;;;;;;8.15;7.03;;;;;;;22.17;35.00;101719.16;4980099;28;20079;-83
2021/03/28 09:09:46;;;;;;;9.57;7.13;;;;;;;22.09;35.75;101720.34;4980403;28;20033;-83
2021/03/28 09:12:50;;;;;;;10.52;7.32;;;;;;;23.08;33.95;101715.75;4979995;28;20046;-85
2021/03/28 09:15:33;;;;;;;10.75;7.53;;;;;;;22.92;34.32;101717.00;4935448;28;20061;-85
2021/03/28 09:18:21;;;;;;;14.13;11.73;;;;;;;22.28;34.71;101722.00;4977031;28;20105;-76
2021/03/28 09:21:19;;;;;;;29.77;22.92;;;;;;;23.00;33.86;101724.25;4977403;28;20509;-85
2021/03/28 09:24:13;;;;;;;11.13;9.77;;;;;;;22.80;34.66;101725.13;4976763;28;20082;-82
2021/03/28 09:26:48;;;;;;;11.90;8.85;;;;;;;23.08;34.09;101725.06;4978199;28;20100;-79
2021/03/28 09:29:33;;;;;;;10.77;7.07;;;;;;;23.84;32.63;101726.25;4978085;28;20031;-77
2021/03/28 09:32:01;;;;;;;8.07;6.85;;;;;;;23.93;32.09;101708.75;4977440;28;20027;-77
2021/03/28 09:34:53;;;;;;;9.38;6.97;;;;;;;24.05;32.07;101728.13;4976996;28;20430;-77
2021/03/28 09:37:26;;;;;;;12.07;8.07;;;;;;;23.53;32.43;101722.38;4977429;28;20046;-83
2021/03/28 09:39:54;;;;;;;12.25;10.57;;;;;;;24.13;32.43;101723.19;4976195;28;20042;-81
2021/03/28 09:42:43;;;;;;;10.20;8.30;;;;;;;24.74;30.88;101710.00;4977261;28;20121;-78
2021/03/28 09:45:39;;;;;;;46.05;32.53;;;;;;;24.86;30.37;101714.34;4975462;28;20042;-79
2021/03/28 09:48:11;;;;;;;21.10;17.13;;;;;;;24.58;30.63;101711.81;4977838;28;20089;-77
2021/03/28 09:50:45;;;;;;;12.18;10.93;;;;;;;24.23;31.70;101714.56;4976326;28;20034;-77
2021/03/28 09:53:53;;;;;;;10.43;6.38;;;;;;;24.44;30.81;101710.72;4976311;28;20027;-77
2021/03/28 09:56:59;;;;;;;8.05;7.07;;;;;;;24.48;31.63;101713.53;4949069;28;20038;-78
2021/03/28 09:59:35;;;;;;;11.75;8.77;;;;;;;24.56;32.09;101698.84;4977395;28;20023;-78
2021/03/28 10:02:32;;;;;;;10.05;7.82;;;;;;;23.99;32.67;101705.03;4975284;28;20035;-76
2021/03/28 10:05:01;;;;;;;14.50;7.47;;;;;;;23.12;34.40;101702.34;4977527;28;20373;-77
2021/03/28 10:07:46;;;;;;;8.15;7.32;;;;;;;22.95;34.83;101707.66;4975992;28;20027;-82
2021/03/28 10:10:39;;;;;;;8.02;7.22;;;;;;;23.82;34.46;101711.69;4975793;28;20022;-79
2021/03/28 10:13:20;;;;;;;;;;;;;;;23.57;36.32;101700.44;4976327;28;20061;-79
2021/03/28 10:15:54;;;;;;;10.23;8.00;;;;;;;23.11;36.28;101707.19;4976328;28;19909;-77
2021/03/28 10:18:32;;;;;;;8.75;7.88;;;;;;;23.24;36.79;101707.53;4975500;28;20133;-78
2021/03/28 10:21:20;;;;;;;8.80;7.78;;;;;;;23.30;36.84;101707.91;4975882;28;20502;-77
2021/03/28 10:24:11;;;;;;;7.70;6.10;;;;;;;23.06;36.87;101704.78;4976238;28;20492;-76
2021/03/28 10:26:45;;;;;;;6.15;5.60;;;;;;;23.31;36.39;101715.22;4976567;28;20030;-77
2021/03/28 10:29:48;;;;;;;8.45;5.65;;;;;;;23.01;36.64;101705.22;4976153;28;20327;-77
2021/03/28 10:32:43;;;;;;;8.10;5.43;;;;;;;22.51;36.99;101701.69;4976670;28;20031;-83
2021/03/28 10:35:29;;;;;;;5.63;4.85;;;;;;;22.87;35.83;101697.53;4976066;28;20121;-80
2021/03/28 10:38:22;;;;;;;6.22;4.68;;;;;;;23.69;34.73;101702.00;4974547;28;20130;-79
2021/03/28 10:41:22;;;;;;;5.82;3.53;;;;;;;23.27;34.56;101698.19;4976374;28;20031;-78
2021/03/28 10:44:10;;;;;;;6.22;3.55;;;;;;;23.09;34.09;101688.97;4975318;28;20031;-77
2021/03/28 10:47:09;;;;;;;4.95;3.97;;;;;;;23.94;33.26;101699.78;4976380;28;20087;-78
2021/03/28 10:50:29;;;;;;;3.83;3.53;;;;;;;23.82;33.16;101700.31;4975501;28;20054;-76
2021/03/28 10:53:45;;;;;;;3.63;3.25;;;;;;;24.44;31.80;101699.34;4919661;29;20031;-76
2021/03/28 10:56:22;;;;;;;3.67;3.17;;;;;;;24.14;32.27;101693.53;4950199;28;20504;-75
2021/03/28 10:59:01;;;;;;;4.97;3.25;;;;;;;23.80;32.63;101697.06;4974930;28;20034;-77
2021/03/28 11:01:51;;;;;;;4.68;3.72;;;;;;;23.89;32.65;101691.72;4974815;28;20022;-78
2021/03/28 11:04:45;;;;;;;4.95;4.45;;;;;;;23.15;34.40;101696.63;4974977;28;20039;-75
2021/03/28 11:07:38;;;;;;;5.03;3.53;;;;;;;23.10;34.66;101699.09;4975746;28;20031;-83
2021/03/28 11:10:40;;;;;;;4.37;3.80;;;;;;;22.73;35.35;101691.91;4975397;28;20488;-76
2021/03/28 11:13:09;;;;;;;6.25;3.88;;;;;;;23.17;34.95;101691.38;4973964;28;20035;-77
2021/03/28 11:16:01;;;;;;;5.30;4.07;;;;;;;23.59;33.95;101680.94;4975346;28;20097;-77
2021/03/28 11:19:08;;;;;;;4.85;3.70;;;;;;;23.36;34.73;101684.34;4986599;28;20416;-82
2021/03/28 11:21:52;;;;;;;4.00;3.60;;;;;;;23.34;34.72;101686.00;4933054;28;20034;-80
2021/03/28 11:24:53;;;;;;;5.70;4.80;;;;;;;23.10;35.31;101682.06;4977955;28;20034;-78
2021/03/28 11:27:27;;;;;;;7.78;5.18;;;;;;;22.42;36.35;101674.56;4977801;28;20041;-79
2021/03/28 11:30:18;;;;;;;4.78;4.05;;;;;;;22.64;35.90;101672.50;4977852;28;20031;-85
2021/03/28 11:32:49;;;;;;;4.53;4.13;;;;;;;23.30;35.02;101673.84;4977564;28;20034;-76
2021/03/28 11:35:18;;;;;;;5.60;4.20;;;;;;;22.36;36.25;101678.22;4977368;28;20092;-75
2021/03/28 11:37:51;;;;;;;6.53;5.95;;;;;;;22.61;36.19;101672.50;4977614;28;20495;-77
2021/03/28 11:40:38;;;;;;;;;;;;;;;22.69;35.52;101674.06;4978650;28;20026;-78
2021/03/28 11:43:04;;;;;;;7.50;4.32;;;;;;;22.55;36.14;101679.81;4978103;28;19967;-78
2021/03/28 11:45:43;;;;;;;8.00;4.03;;;;;;;22.36;36.89;101676.19;4977159;28;20034;-73
2021/03/28 11:48:35;;;;;;;5.90;4.60;;;;;;;22.68;36.63;101672.47;4977806;28;20038;-74
2021/03/28 11:51:35;;;;;;;6.45;4.82;;;;;;;22.13;38.27;101670.16;4977351;28;20031;-75
2021/03/28 11:54:10;;;;;;;6.53;4.30;;;;;;;22.26;38.91;101674.19;4995653;28;20034;-75
2021/03/28 11:56:51;;;;;;;6.95;4.85;;;;;;;22.94;37.52;101663.47;4977612;28;20055;-78
2021/03/28 11:59:22;;;;;;;6.82;3.85;;;;;;;22.53;37.60;101657.53;4977619;28;20382;-78
2021/03/28 12:01:58;;;;;;;4.25;3.80;;;;;;;22.58;37.43;101659.13;4977481;28;20537;-76
2021/03/28 12:04:37;;;;;;;8.57;6.68;;;;;;;22.22;38.34;101665.72;4977799;28;20034;-77
2021/03/28 12:07:25;;;;;;;7.65;5.28;;;;;;;22.62;36.61;101657.91;4977458;28;20469;-79
2021/03/28 12:10:14;;;;;;;5.35;3.83;;;;;;;21.90;38.85;101639.41;4995148;28;20018;-79
2021/03/28 12:12:40;;;;;;;5.70;3.75;;;;;;;21.81;39.56;101648.28;4976827;28;20042;-77
2021/03/28 12:15:42;;;;;;;6.38;3.85;;;;;;;22.30;37.84;101646.66;4994240;28;20031;-78
2021/03/28 12:18:14;;;;;;;5.68;3.60;;;;;;;21.68;39.27;101650.72;4976684;28;20133;-78
2021/03/28 12:20:39;;;;;;;6.78;3.78;;;;;;;21.54;39.96;101644.25;4976976;28;20022;-78
2021/03/28 12:23:21;;;;;;;4.53;3.67;;;;;;;21.26;40.34;101642.97;4994703;28;20035;-78
2021/03/28 12:26:19;;;;;;;4.70;3.63;;;;;;;21.20;39.59;101602.13;4976433;28;20030;-78
2021/03/28 12:28:45;;;;;;;4.60;3.65;;;;;;;21.62;38.72;101635.31;4977587;28;20425;-78
2021/03/28 12:31:47;;;;;;;3.67;3.35;;;;;;;21.35;40.51;101632.06;4976874;28;20084;-78
2021/03/28 12:34:31;;;;;;;5.07;4.30;;;;;;;21.17;41.23;101637.69;4972749;28;20121;-78
2021/03/28 12:37:10;;;;;;;;;;;;;;;21.19;40.89;101623.13;4977219;28;20030;-79
2021/03/28 12:39:41;;;;;;;5.53;4.78;;;;;;;21.53;39.76;101637.78;4977332;28;19909;-80
2021/03/28 12:42:44;;;;;;;8.13;5.25;;;;;;;21.96;39.63;101627.25;4976643;28;20026;-77
2021/03/28 12:45:09;;;;;;;7.05;5.10;;;;;;;22.05;39.58;101623.16;4991184;28;20031;-78
2021/03/28 12:47:41;;;;;;;7.93;5.70;;;;;;;22.01;40.62;101611.06;4976960;28;20026;-78
2021/03/28 12:50:17;;;;;;;8.90;6.05;;;;;;;21.33;43.07;101630.88;4976681;28;20030;-80
2021/03/28 12:52:52;;;;;;;6.32;5.30;;;;;;;21.73;42.34;101624.00;4993945;28;20022;-78
2021/03/28 12:55:32;;;;;;;6.97;5.72;;;;;;;21.32;42.90;101627.22;4976625;28;20504;-77
2021/03/28 12:58:07;;;;;;;5.82;5.32;;;;;;;21.38;43.23;101619.94;4976628;28;20033;-79
2021/03/28 13:00:56;;;;;;;5.55;5.05;;;;;;;21.68;42.79;101618.78;4977104;28;20057;-78
2021/03/28 13:03:27;;;;;;;7.88;5.50;;;;;;;20.88;45.96;101619.81;4977150;28;20026;-76
2021/03/28 13:06:04;;;;;;;6.85;5.38;;;;;;;20.95;46.15;101619.03;4976479;28;20030;-79
2021/03/28 13:08:32;;;;;;;6.65;5.72;;;;;;;21.08;45.34;101596.81;4976538;28;20544;-77
2021/03/28 13:11:04;;;;;;;5.55;5.07;;;;;;;21.03;44.88;101622.66;4976686;28;20384;-80
2021/03/28 13:13:40;;;;;;;6.32;5.32;;;;;;;21.06;45.83;101608.53;4976479;28;20117;-77
2021/03/28 13:16:19;;;;;;;6.35;5.72;;;;;;;21.12;45.15;101623.09;4976418;28;20034;-82
2021/03/28 13:18:47;;;;;;;6.38;5.78;;;;;;;20.89;46.01;101618.59;4975813;28;20132;-75
2021/03/28 13:21:38;;;;;;;8.43;5.72;;;;;;;21.27;43.75;101610.59;4993846;28;20026;-78
2021/03/28 13:24:18;;;;;;;7.03;5.82;;;;;;;21.13;44.85;101613.41;4976568;28;20121;-77
2021/03/28 13:27:05;;;;;;;8.15;7.38;;;;;;;21.47;45.00;101615.94;4976309;28;20034;-77
2021/03/28 13:29:55;;;;;;;7.47;6.68;;;;;;;21.38;44.47;101600.13;4976272;28;20082;-77
2021/03/28 13:32:37;;;;;;;9.25;6.20;;;;;;;21.11;44.13;101610.19;4964273;28;20042;-76
2021/03/28 13:35:25;;;;;;;8.25;6.30;;;;;;;21.24;44.77;101614.22;4976812;28;20372;-80
2021/03/28 13:37:53;;;;;;;6.15;5.55;;;;;;;21.00;45.36;101612.16;4978784;28;20022;-76
2021/03/28 13:40:22;;;;;;;6.07;5.47;;;;;;;21.02;45.45;101619.03;4979856;28;20158;-76
2021/03/28 13:43:02;;;;;;;6.50;5.53;;;;;;;20.79;46.44;101605.22;4997083;28;20026;-78
2021/03/28 13:45:40;;;;;;;6.32;5.07;;;;;;;20.97;45.58;101593.16;4997238;28;20030;-76
2021/03/28 13:48:08;;;;;;;7.38;5.32;;;;;;;21.13;45.81;101610.56;4979659;28;20023;-77
2021/03/28 13:50:42;;;;;;;5.57;4.68;;;;;;;20.61;45.60;101612.81;4979637;28;20126;-75
2021/03/28 13:53:17;;;;;;;5.20;4.63;;;;;;;20.81;45.42;101576.53;4979571;28;20054;-78
2021/03/28 13:55:47;;;;;;;6.22;4.70;;;;;;;21.15;45.73;101596.84;4979574;28;20088;-76
2021/03/28 13:58:32;;;;;;;5.00;4.57;;;;;;;21.23;45.52;101584.31;4979523;28;20069;-75